createdAt,value
2017-08-08T00:01:06.564Z,0
2017-08-08T00:02:16.836Z,0
2017-08-08T00:03:27.110Z,0
2017-08-08T00:04:37.381Z,0
2017-08-08T00:05:47.653Z,0
2017-08-08T00:06:57.938Z,0
2017-08-08T00:08:07.584Z,0
2017-08-08T00:09:17.858Z,0
2017-08-08T00:10:28.132Z,0
2017-08-08T00:11:38.408Z,0
2017-08-08T00:12:48.683Z,0
2017-08-08T00:13:58.328Z,0
2017-08-08T00:15:08.603Z,0
2017-08-08T00:16:18.876Z,0
2017-08-08T00:17:28.832Z,0
2017-08-08T00:18:39.110Z,0
2017-08-08T00:19:49.392Z,0
2017-08-08T00:20:59.664Z,0
2017-08-08T00:22:09.953Z,0
2017-08-08T00:23:20.237Z,0
2017-08-08T00:24:30.509Z,0
2017-08-08T00:25:40.787Z,0
2017-08-08T00:26:51.068Z,0
2017-08-08T00:28:01.338Z,0
2017-08-08T00:29:11.309Z,0
2017-08-08T00:30:20.951Z,0
2017-08-08T00:31:30.913Z,0
2017-08-08T00:32:41.187Z,0
2017-08-08T00:33:51.459Z,0
2017-08-08T00:35:01.733Z,0
2017-08-08T00:36:12.005Z,0
2017-08-08T00:37:22.284Z,0
2017-08-08T00:38:32.563Z,0
2017-08-08T00:39:42.519Z,0
2017-08-08T00:40:52.476Z,0
2017-08-08T00:42:02.752Z,0
2017-08-08T00:43:13.023Z,0
2017-08-08T00:44:23.297Z,0
2017-08-08T00:45:33.572Z,0
2017-08-08T00:46:43.845Z,0
2017-08-08T00:47:53.497Z,0
2017-08-08T00:49:03.773Z,0
2017-08-08T00:50:13.734Z,0
2017-08-08T00:51:24.005Z,0
2017-08-08T00:52:34.274Z,0
2017-08-08T00:53:44.544Z,0
2017-08-08T00:54:54.513Z,0
2017-08-08T00:56:04.803Z,0
2017-08-08T00:57:15.071Z,0
2017-08-08T00:58:25.349Z,0
2017-08-08T00:59:35.308Z,0
2017-08-08T01:00:45.603Z,0
2017-08-08T01:01:55.595Z,0
2017-08-08T01:03:05.244Z,0
2017-08-08T01:04:15.197Z,0
2017-08-08T01:05:25.158Z,0
2017-08-08T01:06:35.115Z,0
2017-08-08T01:07:45.086Z,0
2017-08-08T01:08:55.361Z,0
2017-08-08T01:10:05.632Z,0
2017-08-08T01:11:15.907Z,0
2017-08-08T01:12:25.874Z,0
2017-08-08T01:13:36.147Z,0
2017-08-08T01:14:45.475Z,0
2017-08-08T01:15:55.745Z,0
2017-08-08T01:17:05.700Z,0
2017-08-08T01:18:15.974Z,0
2017-08-08T01:19:25.929Z,0
2017-08-08T01:20:35.575Z,0
2017-08-08T01:21:45.852Z,0
2017-08-08T01:22:56.123Z,0
2017-08-08T01:24:06.409Z,0
2017-08-08T01:25:16.691Z,0
2017-08-08T01:26:26.963Z,0
2017-08-08T01:27:37.234Z,0
2017-08-08T01:28:47.191Z,0
2017-08-08T01:29:57.149Z,0
2017-08-08T01:31:07.110Z,0
2017-08-08T01:32:17.380Z,0
2017-08-08T01:33:27.675Z,0
2017-08-08T01:34:37.953Z,0
2017-08-08T01:35:47.914Z,0
2017-08-08T01:36:58.203Z,0
2017-08-08T01:38:08.474Z,0
2017-08-08T01:39:18.750Z,0
2017-08-08T01:40:29.019Z,0
2017-08-08T01:41:39.299Z,0
2017-08-08T01:42:49.578Z,0
2017-08-08T01:43:59.850Z,0
2017-08-08T01:45:09.810Z,0
2017-08-08T01:46:20.086Z,0
2017-08-08T01:47:30.362Z,0
2017-08-08T01:48:40.632Z,0
2017-08-08T01:49:50.905Z,0
2017-08-08T01:51:01.177Z,0
2017-08-08T01:52:11.134Z,0
2017-08-08T01:53:21.413Z,0
2017-08-08T01:54:31.371Z,0
2017-08-08T01:55:41.643Z,0
2017-08-08T01:56:51.598Z,0
2017-08-08T01:58:01.876Z,0
2017-08-08T01:59:12.147Z,0
2017-08-08T02:00:22.103Z,0
2017-08-08T02:01:32.377Z,0
2017-08-08T02:02:42.649Z,0
2017-08-08T02:03:52.921Z,0
2017-08-08T02:05:03.198Z,0
2017-08-08T02:06:12.845Z,0
2017-08-08T02:07:22.800Z,0
2017-08-08T02:08:33.168Z,0
2017-08-08T02:09:43.441Z,0
2017-08-08T02:10:53.719Z,0
2017-08-08T02:12:03.674Z,0
2017-08-08T02:13:13.945Z,0
2017-08-08T02:14:24.218Z,0
2017-08-08T02:15:34.489Z,0
2017-08-08T02:16:44.452Z,0
2017-08-08T02:17:54.415Z,0
2017-08-08T02:19:04.392Z,0
2017-08-08T02:20:14.667Z,0
2017-08-08T02:21:24.313Z,0
2017-08-08T02:22:34.273Z,0
2017-08-08T02:23:44.233Z,0
2017-08-08T02:24:54.505Z,0
2017-08-08T02:26:04.465Z,0
2017-08-08T02:27:14.738Z,0
2017-08-08T02:28:25.010Z,0
2017-08-08T02:29:35.285Z,0
2017-08-08T02:30:45.559Z,0
2017-08-08T02:31:55.530Z,0
2017-08-08T02:33:04.861Z,0
2017-08-08T02:34:15.136Z,0
2017-08-08T02:35:25.103Z,0
2017-08-08T02:36:35.392Z,0
2017-08-08T02:37:45.360Z,0
2017-08-08T02:38:55.321Z,0
2017-08-08T02:40:05.284Z,0
2017-08-08T02:41:15.561Z,0
2017-08-08T02:42:25.531Z,0
2017-08-08T02:43:35.818Z,0
2017-08-08T02:44:46.096Z,0
2017-08-08T02:45:56.373Z,0
2017-08-08T02:47:06.654Z,0
2017-08-08T02:48:16.930Z,0
2017-08-08T02:49:27.203Z,0
2017-08-08T02:50:37.168Z,0
2017-08-08T02:51:47.129Z,0
2017-08-08T02:52:57.403Z,0
2017-08-08T02:54:07.673Z,0
2017-08-08T02:55:17.945Z,0
2017-08-08T02:56:28.224Z,0
2017-08-08T02:57:38.181Z,0
2017-08-08T02:58:48.453Z,5
2017-08-08T02:59:58.415Z,5
2017-08-08T03:01:08.688Z,5
2017-08-08T03:02:18.960Z,5
2017-08-08T03:03:28.921Z,5
2017-08-08T03:04:39.216Z,5
2017-08-08T03:05:49.494Z,5
2017-08-08T03:06:59.762Z,5
2017-08-08T03:08:09.413Z,5
2017-08-08T03:09:19.378Z,10
2017-08-08T03:10:29.648Z,10
2017-08-08T03:11:39.921Z,10
2017-08-08T03:12:49.879Z,10
2017-08-08T03:13:59.200Z,10
2017-08-08T03:15:08.851Z,10
2017-08-08T03:16:18.810Z,15
2017-08-08T03:17:29.081Z,15
2017-08-08T03:18:39.354Z,15
2017-08-08T03:19:49.646Z,15
2017-08-08T03:20:59.919Z,15
2017-08-08T03:22:09.875Z,15
2017-08-08T03:23:19.833Z,20
2017-08-08T03:24:30.104Z,20
2017-08-08T03:25:40.376Z,20
2017-08-08T03:26:50.334Z,20
2017-08-08T03:28:00.294Z,20
2017-08-08T03:29:09.936Z,20
2017-08-08T03:30:19.918Z,20
2017-08-08T03:31:29.875Z,20
2017-08-08T03:32:39.836Z,25
2017-08-08T03:33:50.107Z,25
2017-08-08T03:35:00.382Z,25
2017-08-08T03:36:10.336Z,30
2017-08-08T03:37:19.982Z,30
2017-08-08T03:38:29.935Z,30
2017-08-08T03:39:39.892Z,30
2017-08-08T03:40:50.170Z,35
2017-08-08T03:42:00.132Z,35
2017-08-08T03:43:10.401Z,35
2017-08-08T03:44:20.680Z,35
2017-08-08T03:45:30.952Z,35
2017-08-08T03:46:40.906Z,40
2017-08-08T03:47:50.860Z,40
2017-08-08T03:49:00.816Z,40
2017-08-08T03:50:10.774Z,45
2017-08-08T03:51:20.738Z,45
2017-08-08T03:52:31.009Z,45
2017-08-08T03:53:41.278Z,45
2017-08-08T03:54:51.238Z,45
2017-08-08T03:56:01.198Z,50
2017-08-08T03:57:11.473Z,50
2017-08-08T03:58:21.744Z,50
2017-08-08T03:59:31.950Z,55
2017-08-08T04:00:42.228Z,55
2017-08-08T04:01:52.508Z,55
2017-08-08T04:03:02.502Z,60
2017-08-08T04:04:12.778Z,65
2017-08-08T04:05:22.740Z,65
2017-08-08T04:06:32.705Z,70
2017-08-08T04:07:42.974Z,70
2017-08-08T04:08:52.617Z,70
2017-08-08T04:10:02.890Z,75
2017-08-08T04:11:12.847Z,75
2017-08-08T04:12:22.807Z,75
2017-08-08T04:13:33.080Z,75
2017-08-08T04:14:43.036Z,75
2017-08-08T04:15:52.996Z,75
2017-08-08T04:17:03.265Z,80
2017-08-08T04:18:13.560Z,75
2017-08-08T04:19:23.519Z,85
2017-08-08T04:20:33.479Z,80
2017-08-08T04:21:43.438Z,80
2017-08-08T04:22:53.710Z,85
2017-08-08T04:24:03.688Z,85
2017-08-08T04:25:13.643Z,90
2017-08-08T04:26:23.600Z,90
2017-08-08T04:27:33.879Z,90
2017-08-08T04:28:43.835Z,95
2017-08-08T04:29:53.478Z,95
2017-08-08T04:31:03.756Z,95
2017-08-08T04:32:13.719Z,95
2017-08-08T04:33:23.989Z,100
2017-08-08T04:34:33.628Z,95
2017-08-08T04:35:43.900Z,90
2017-08-08T04:36:53.859Z,100
2017-08-08T04:38:04.127Z,100
2017-08-08T04:39:14.417Z,100
2017-08-08T04:40:24.384Z,105
2017-08-08T04:41:34.680Z,95
2017-08-08T04:42:44.968Z,105
2017-08-08T04:43:54.924Z,110
2017-08-08T04:45:05.197Z,110
2017-08-08T04:46:15.469Z,110
2017-08-08T04:47:25.738Z,115
2017-08-08T04:48:36.007Z,115
2017-08-08T04:49:46.280Z,115
2017-08-08T04:50:56.555Z,115
2017-08-08T04:52:06.198Z,120
2017-08-08T04:53:16.159Z,120
2017-08-08T04:54:26.114Z,115
2017-08-08T04:55:36.067Z,115
2017-08-08T04:56:46.341Z,115
2017-08-08T04:57:56.612Z,120
2017-08-08T04:59:06.885Z,120
2017-08-08T05:00:17.162Z,120
2017-08-08T05:01:27.125Z,120
2017-08-08T05:02:37.399Z,120
2017-08-08T05:03:47.670Z,120
2017-08-08T05:04:57.947Z,125
2017-08-08T05:06:08.218Z,125
2017-08-08T05:07:18.493Z,125
2017-08-08T05:08:28.765Z,125
2017-08-08T05:09:39.034Z,125
2017-08-08T05:10:49.315Z,125
2017-08-08T05:11:59.289Z,130
2017-08-08T05:13:09.559Z,130
2017-08-08T05:14:19.834Z,130
2017-08-08T05:15:30.115Z,130
2017-08-08T05:16:40.387Z,130
2017-08-08T05:17:50.344Z,130
2017-08-08T05:19:00.621Z,135
2017-08-08T05:20:10.278Z,135
2017-08-08T05:21:20.235Z,135
2017-08-08T05:22:30.504Z,135
2017-08-08T05:23:40.775Z,135
2017-08-08T05:24:50.416Z,135
2017-08-08T05:26:00.686Z,135
2017-08-08T05:27:10.326Z,135
2017-08-08T05:28:20.283Z,135
2017-08-08T05:29:30.267Z,140
2017-08-08T05:30:40.539Z,140
2017-08-08T05:31:50.819Z,145
2017-08-08T05:33:01.090Z,140
2017-08-08T05:34:10.735Z,140
2017-08-08T05:35:20.383Z,140
2017-08-08T05:36:30.340Z,140
2017-08-08T05:37:40.298Z,140
2017-08-08T05:38:50.572Z,135
2017-08-08T05:40:00.845Z,145
2017-08-08T05:41:10.806Z,145
2017-08-08T05:42:20.767Z,145
2017-08-08T05:43:30.409Z,145
2017-08-08T05:44:40.690Z,145
2017-08-08T05:45:50.645Z,150
2017-08-08T05:47:00.602Z,150
2017-08-08T05:48:10.873Z,150
2017-08-08T05:49:20.834Z,150
2017-08-08T05:50:31.102Z,150
2017-08-08T05:51:41.062Z,150
2017-08-08T05:52:51.332Z,150
2017-08-08T05:54:01.295Z,145
2017-08-08T05:55:11.564Z,150
2017-08-08T05:56:21.524Z,150
2017-08-08T05:57:31.792Z,150
2017-08-08T05:58:42.067Z,150
2017-08-08T05:59:52.337Z,150
2017-08-08T06:01:02.297Z,150
2017-08-08T06:02:12.571Z,155
2017-08-08T06:03:22.237Z,140
2017-08-08T06:04:32.515Z,135
2017-08-08T06:05:42.789Z,135
2017-08-08T06:06:53.058Z,145
2017-08-08T06:08:03.330Z,155
2017-08-08T06:09:13.607Z,155
2017-08-08T06:10:23.253Z,155
2017-08-08T06:11:33.526Z,155
2017-08-08T06:12:43.797Z,155
2017-08-08T06:13:54.072Z,155
2017-08-08T06:15:04.357Z,155
2017-08-08T06:16:14.632Z,155
2017-08-08T06:17:24.601Z,155
2017-08-08T06:18:34.885Z,160
2017-08-08T06:19:45.156Z,160
2017-08-08T06:20:55.112Z,160
2017-08-08T06:22:05.391Z,160
2017-08-08T06:23:15.349Z,160
2017-08-08T06:24:25.323Z,160
2017-08-08T06:25:35.608Z,160
2017-08-08T06:26:45.568Z,160
2017-08-08T06:27:55.845Z,160
2017-08-08T06:29:06.123Z,160
2017-08-08T06:30:16.398Z,165
2017-08-08T06:31:26.745Z,165
2017-08-08T06:32:37.042Z,160
2017-08-08T06:33:46.997Z,165
2017-08-08T06:34:57.277Z,165
2017-08-08T06:36:07.553Z,165
2017-08-08T06:37:17.827Z,165
2017-08-08T06:38:27.487Z,165
2017-08-08T06:39:37.763Z,165
2017-08-08T06:40:48.033Z,165
2017-08-08T06:41:57.989Z,165
2017-08-08T06:43:10.265Z,165
2017-08-08T06:44:20.539Z,165
2017-08-08T06:45:30.509Z,165
2017-08-08T06:46:40.474Z,165
2017-08-08T06:47:50.438Z,165
2017-08-08T06:49:00.713Z,165
2017-08-08T06:50:10.987Z,165
2017-08-08T06:51:21.262Z,165
2017-08-08T06:52:31.578Z,165
2017-08-08T06:53:41.854Z,165
2017-08-08T06:54:52.126Z,160
2017-08-08T06:56:02.084Z,165
2017-08-08T06:57:12.361Z,165
2017-08-08T06:58:22.652Z,165
2017-08-08T06:59:32.922Z,170
2017-08-08T07:00:42.878Z,165
2017-08-08T07:01:53.153Z,170
2017-08-08T07:03:03.115Z,170
2017-08-08T07:04:13.082Z,175
2017-08-08T07:05:23.367Z,170
2017-08-08T07:06:33.646Z,175
2017-08-08T07:07:43.918Z,175
2017-08-08T07:08:53.878Z,175
2017-08-08T07:10:04.151Z,175
2017-08-08T07:11:14.110Z,180
2017-08-08T07:12:24.066Z,180
2017-08-08T07:13:34.023Z,180
2017-08-08T07:14:43.977Z,180
2017-08-08T07:15:53.935Z,185
2017-08-08T07:17:04.205Z,185
2017-08-08T07:18:13.849Z,190
2017-08-08T07:19:24.122Z,195
2017-08-08T07:20:34.394Z,195
2017-08-08T07:21:44.350Z,195
2017-08-08T07:22:54.624Z,195
2017-08-08T07:24:04.585Z,195
2017-08-08T07:25:14.860Z,195
2017-08-08T07:26:25.130Z,195
2017-08-08T07:27:35.403Z,195
2017-08-08T07:28:45.675Z,195
2017-08-08T07:29:55.653Z,180
2017-08-08T07:31:05.610Z,200
2017-08-08T07:32:15.574Z,200
2017-08-08T07:33:25.217Z,200
2017-08-08T07:34:35.180Z,200
2017-08-08T07:35:45.452Z,200
2017-08-08T07:36:55.408Z,205
2017-08-08T07:38:05.364Z,205
2017-08-08T07:39:15.347Z,205
2017-08-08T07:40:25.301Z,205
2017-08-08T07:41:35.578Z,175
2017-08-08T07:42:45.533Z,210
2017-08-08T07:43:55.806Z,210
2017-08-08T07:45:06.079Z,205
2017-08-08T07:46:16.035Z,205
2017-08-08T07:47:25.998Z,205
2017-08-08T07:48:36.265Z,210
2017-08-08T07:49:45.597Z,210
2017-08-08T07:50:55.564Z,210
2017-08-08T07:52:05.524Z,210
2017-08-08T07:53:15.797Z,210
2017-08-08T07:54:26.070Z,210
2017-08-08T07:55:36.028Z,185
2017-08-08T07:56:46.326Z,190
2017-08-08T07:57:56.599Z,220
2017-08-08T07:59:06.872Z,225
2017-08-08T08:00:16.539Z,220
2017-08-08T08:01:26.495Z,220
2017-08-08T08:02:36.770Z,225
2017-08-08T08:03:46.732Z,225
2017-08-08T08:04:57.009Z,225
2017-08-08T08:06:07.283Z,220
2017-08-08T08:07:17.559Z,225
2017-08-08T08:08:27.532Z,220
2017-08-08T08:09:37.817Z,225
2017-08-08T08:10:48.091Z,230
2017-08-08T08:11:58.049Z,235
2017-08-08T08:13:08.009Z,240
2017-08-08T08:14:18.280Z,245
2017-08-08T08:15:28.552Z,250
2017-08-08T08:16:38.513Z,225
2017-08-08T08:17:48.470Z,255
2017-08-08T08:18:58.747Z,235
2017-08-08T08:20:08.706Z,210
2017-08-08T08:21:18.663Z,235
2017-08-08T08:22:28.936Z,235
2017-08-08T08:23:39.213Z,245
2017-08-08T08:24:49.170Z,250
2017-08-08T08:25:59.136Z,275
2017-08-08T08:27:09.413Z,285
2017-08-08T08:28:19.066Z,265
2017-08-08T08:29:29.033Z,270
2017-08-08T08:30:39.312Z,260
2017-08-08T08:31:49.594Z,240
2017-08-08T08:32:59.560Z,250
2017-08-08T08:34:09.841Z,255
2017-08-08T08:35:19.826Z,265
2017-08-08T08:36:30.108Z,275
2017-08-08T08:37:40.389Z,270
2017-08-08T08:38:50.377Z,270
2017-08-08T08:40:00.027Z,275
2017-08-08T08:41:09.984Z,280
2017-08-08T08:42:19.945Z,285
2017-08-08T08:43:29.906Z,305
2017-08-08T08:44:39.866Z,350
2017-08-08T08:45:49.834Z,370
2017-08-08T08:47:00.112Z,360
2017-08-08T08:48:10.072Z,345
2017-08-08T08:49:20.036Z,345
2017-08-08T08:50:30.026Z,350
2017-08-08T08:51:40.303Z,350
2017-08-08T08:52:50.262Z,350
2017-08-08T08:54:00.228Z,320
2017-08-08T08:55:10.554Z,320
2017-08-08T08:56:20.201Z,315
2017-08-08T08:57:30.165Z,315
2017-08-08T08:58:40.444Z,315
2017-08-08T08:59:50.719Z,310
2017-08-08T09:01:00.993Z,310
2017-08-08T09:02:10.642Z,310
2017-08-08T09:03:20.924Z,320
2017-08-08T09:04:31.197Z,335
2017-08-08T09:05:41.155Z,360
2017-08-08T09:06:51.117Z,375
2017-08-08T09:08:01.390Z,400
2017-08-08T09:09:11.046Z,440
2017-08-08T09:10:21.324Z,460
2017-08-08T09:11:31.603Z,455
2017-08-08T09:12:41.576Z,440
2017-08-08T09:13:51.534Z,455
2017-08-08T09:15:01.812Z,480
2017-08-08T09:16:11.467Z,510
2017-08-08T09:17:21.432Z,505
2017-08-08T09:18:31.707Z,500
2017-08-08T09:19:41.672Z,495
2017-08-08T09:20:51.974Z,460
2017-08-08T09:22:01.938Z,445
2017-08-08T09:23:11.908Z,445
2017-08-08T09:24:22.182Z,430
2017-08-08T09:25:32.150Z,405
2017-08-08T09:26:42.427Z,385
2017-08-08T09:27:52.386Z,350
2017-08-08T09:29:02.348Z,290
2017-08-08T09:30:12.627Z,270
2017-08-08T09:31:22.275Z,260
2017-08-08T09:32:32.549Z,255
2017-08-08T09:33:42.507Z,255
2017-08-08T09:34:52.480Z,255
2017-08-08T09:36:02.756Z,255
2017-08-08T09:37:13.041Z,250
2017-08-08T09:38:23.008Z,250
2017-08-08T09:39:32.980Z,245
2017-08-08T09:40:43.272Z,245
2017-08-08T09:41:53.231Z,245
2017-08-08T09:43:03.509Z,245
2017-08-08T09:44:13.156Z,245
2017-08-08T09:45:23.435Z,245
2017-08-08T09:46:33.712Z,245
2017-08-08T09:47:43.984Z,250
2017-08-08T09:48:53.953Z,250
2017-08-08T09:50:04.231Z,255
2017-08-08T09:51:14.515Z,265
2017-08-08T09:52:24.789Z,280
2017-08-08T09:53:34.747Z,290
2017-08-08T09:54:44.718Z,300
2017-08-08T09:55:55.009Z,285
2017-08-08T09:57:04.976Z,280
2017-08-08T09:58:14.956Z,280
2017-08-08T09:59:25.229Z,280
2017-08-08T10:00:35.516Z,280
2017-08-08T10:01:45.575Z,280
2017-08-08T10:02:55.854Z,270
2017-08-08T10:04:06.128Z,270
2017-08-08T10:05:16.406Z,275
2017-08-08T10:06:26.363Z,280
2017-08-08T10:07:36.636Z,280
2017-08-08T10:08:46.283Z,280
2017-08-08T10:09:56.555Z,280
2017-08-08T10:11:06.836Z,275
2017-08-08T10:12:17.112Z,275
2017-08-08T10:13:27.394Z,280
2017-08-08T10:14:37.353Z,285
2017-08-08T10:15:47.634Z,290
2017-08-08T10:16:57.603Z,290
2017-08-08T10:18:07.890Z,305
2017-08-08T10:19:18.177Z,315
2017-08-08T10:20:28.452Z,340
2017-08-08T10:21:38.744Z,395
2017-08-08T10:22:49.020Z,475
2017-08-08T10:23:58.979Z,510
2017-08-08T10:25:08.944Z,500
2017-08-08T10:26:19.231Z,450
2017-08-08T10:27:29.510Z,395
2017-08-08T10:28:39.794Z,335
2017-08-08T10:29:50.067Z,320
2017-08-08T10:30:59.712Z,320
2017-08-08T10:32:09.692Z,325
2017-08-08T10:33:19.657Z,315
2017-08-08T10:34:29.622Z,320
2017-08-08T10:35:39.593Z,320
2017-08-08T10:36:49.556Z,330
2017-08-08T10:37:59.830Z,350
2017-08-08T10:39:09.795Z,365
2017-08-08T10:40:20.071Z,360
2017-08-08T10:41:30.349Z,350
2017-08-08T10:42:40.631Z,355
2017-08-08T10:43:50.916Z,360
2017-08-08T10:45:00.882Z,355
2017-08-08T10:46:10.938Z,345
2017-08-08T10:47:20.925Z,355
2017-08-08T10:48:30.886Z,365
2017-08-08T10:49:40.853Z,385
2017-08-08T10:50:51.130Z,410
2017-08-08T10:52:01.408Z,435
2017-08-08T10:53:11.693Z,455
2017-08-08T10:54:21.664Z,470
2017-08-08T10:55:31.940Z,480
2017-08-08T10:56:41.899Z,500
2017-08-08T10:57:51.860Z,485
2017-08-08T10:59:01.835Z,480
2017-08-08T11:00:12.113Z,475
2017-08-08T11:01:22.394Z,480
2017-08-08T11:02:32.673Z,505
2017-08-08T11:03:42.952Z,515
2017-08-08T11:04:53.238Z,535
2017-08-08T11:06:03.513Z,535
2017-08-08T11:07:13.791Z,515
2017-08-08T11:08:23.448Z,520
2017-08-08T11:09:33.725Z,525
2017-08-08T11:10:43.704Z,520
2017-08-08T11:11:53.984Z,520
2017-08-08T11:13:04.261Z,505
2017-08-08T11:14:14.537Z,485
2017-08-08T11:15:24.818Z,485
2017-08-08T11:16:35.092Z,475
2017-08-08T11:17:47.167Z,445
2017-08-08T11:18:57.127Z,430
2017-08-08T11:20:07.408Z,415
2017-08-08T11:21:17.062Z,410
2017-08-08T11:22:27.343Z,410
2017-08-08T11:23:37.617Z,420
2017-08-08T11:24:47.581Z,435
2017-08-08T11:25:57.230Z,445
2017-08-08T11:27:07.192Z,445
2017-08-08T11:28:17.470Z,445
2017-08-08T11:29:27.447Z,455
2017-08-08T11:30:37.094Z,495
2017-08-08T11:31:47.371Z,1365
2017-08-08T11:32:57.652Z,2310
2017-08-08T11:34:07.928Z,2500
2017-08-08T11:35:18.208Z,2645
2017-08-08T11:36:28.173Z,2800
2017-08-08T11:37:38.137Z,2795
2017-08-08T11:38:48.098Z,2820
2017-08-08T11:39:58.058Z,2795
2017-08-08T11:41:08.336Z,2815
2017-08-08T11:42:18.626Z,2810
2017-08-08T11:43:28.904Z,2680
2017-08-08T11:44:38.869Z,2850
2017-08-08T11:45:49.154Z,2765
2017-08-08T11:46:59.123Z,2805
2017-08-08T11:48:09.411Z,2815
2017-08-08T11:49:19.378Z,2805
2017-08-08T11:50:29.351Z,2895
2017-08-08T11:51:39.655Z,2820
2017-08-08T11:52:49.939Z,2690
2017-08-08T11:54:00.221Z,2610
2017-08-08T11:55:10.501Z,2785
2017-08-08T11:56:20.471Z,3000
2017-08-08T11:57:30.125Z,2655
2017-08-08T11:58:40.096Z,2710
2017-08-08T11:59:50.065Z,2790
2017-08-08T12:01:00.351Z,3015
2017-08-08T12:02:10.318Z,3095
2017-08-08T12:03:20.614Z,3125
2017-08-08T12:04:30.896Z,2710
2017-08-08T12:05:40.866Z,2690
2017-08-08T12:06:51.151Z,3010
2017-08-08T12:08:01.174Z,2860
2017-08-08T12:09:11.462Z,2825
2017-08-08T12:10:21.747Z,2855
2017-08-08T12:11:32.030Z,2815
2017-08-08T12:12:42.003Z,3030
2017-08-08T12:13:51.971Z,3110
2017-08-08T12:15:02.262Z,3020
2017-08-08T12:16:12.234Z,3020
2017-08-08T12:17:22.527Z,3045
2017-08-08T12:18:32.510Z,3060
2017-08-08T12:19:42.169Z,2845
2017-08-08T12:20:52.459Z,3085
2017-08-08T12:22:02.442Z,3110
2017-08-08T12:23:12.730Z,2810
2017-08-08T12:24:22.393Z,3025
2017-08-08T12:25:32.684Z,3170
2017-08-08T12:26:42.652Z,3045
2017-08-08T12:27:52.641Z,2935
2017-08-08T12:29:02.636Z,2920
2017-08-08T12:30:12.934Z,2990
2017-08-08T12:31:22.913Z,3200
2017-08-08T12:32:33.210Z,3230
2017-08-08T12:33:43.184Z,3120
2017-08-08T12:34:53.472Z,2815
2017-08-08T12:36:03.129Z,2890
2017-08-08T12:37:13.108Z,2815
2017-08-08T12:38:23.395Z,2730
2017-08-08T12:39:33.370Z,2615
2017-08-08T12:40:43.665Z,2615
2017-08-08T12:41:53.637Z,2575
2017-08-08T12:43:03.930Z,2445
2017-08-08T12:44:13.910Z,2380
2017-08-08T12:45:24.207Z,2175
2017-08-08T12:46:34.508Z,1975
2017-08-08T12:47:44.820Z,1950
2017-08-08T12:48:54.803Z,1940
2017-08-08T12:50:05.092Z,2025
2017-08-08T12:51:15.388Z,2130
2017-08-08T12:52:25.682Z,2545
2017-08-08T12:53:35.971Z,2985
2017-08-08T12:54:46.259Z,2690
2017-08-08T12:55:56.546Z,2570
2017-08-08T12:57:06.834Z,2800
2017-08-08T12:58:17.132Z,3030
2017-08-08T12:59:27.425Z,3070
2017-08-08T13:00:37.715Z,3425
2017-08-08T13:01:47.373Z,3655
2017-08-08T13:02:57.662Z,3415
2017-08-08T13:04:07.635Z,2910
2017-08-08T13:05:17.922Z,3050
2017-08-08T13:06:27.586Z,3070
2017-08-08T13:07:37.561Z,3115
2017-08-08T13:08:47.216Z,2970
2017-08-08T13:09:57.187Z,3250
2017-08-08T13:11:07.475Z,3330
2017-08-08T13:12:17.762Z,3555
2017-08-08T13:13:27.108Z,3465
2017-08-08T13:14:37.396Z,3395
2017-08-08T13:15:47.681Z,3280
2017-08-08T13:16:57.971Z,3310
2017-08-08T13:18:07.628Z,3455
2017-08-08T13:19:17.924Z,3500
2017-08-08T13:20:27.585Z,3295
2017-08-08T13:21:37.873Z,3180
2017-08-08T13:22:48.165Z,3090
2017-08-08T13:23:58.461Z,3355
2017-08-08T13:25:08.756Z,3425
2017-08-08T13:26:19.049Z,3390
2017-08-08T13:27:29.338Z,3510
2017-08-08T13:28:39.002Z,3520
2017-08-08T13:29:49.293Z,3420
2017-08-08T13:30:58.958Z,3460
2017-08-08T13:32:08.937Z,3405
2017-08-08T13:33:18.599Z,3295
2017-08-08T13:34:28.262Z,3215
2017-08-08T13:35:38.552Z,3010
2017-08-08T13:36:48.845Z,2500
2017-08-08T13:37:59.141Z,2690
2017-08-08T13:39:09.115Z,2900
2017-08-08T13:40:19.092Z,3175
2017-08-08T13:41:29.385Z,2985
2017-08-08T13:42:39.675Z,2935
2017-08-08T13:43:49.964Z,2570
2017-08-08T13:45:00.260Z,2705
2017-08-08T13:46:10.238Z,2750
2017-08-08T13:47:20.221Z,3045
2017-08-08T13:48:30.511Z,3255
2017-08-08T13:49:40.803Z,3290
2017-08-08T13:50:51.095Z,3350
2017-08-08T13:52:01.385Z,3255
2017-08-08T13:53:11.687Z,3365
2017-08-08T13:54:21.984Z,3215
2017-08-08T13:55:32.285Z,3095
2017-08-08T13:56:42.587Z,3275
2017-08-08T13:57:52.907Z,2780
2017-08-08T13:59:02.570Z,3255
2017-08-08T14:00:12.862Z,3275
2017-08-08T14:01:22.854Z,3050
2017-08-08T14:02:33.151Z,3225
2017-08-08T14:03:43.132Z,2585
2017-08-08T14:04:52.805Z,2535
2017-08-08T14:06:02.841Z,2245
2017-08-08T14:07:12.821Z,2135
2017-08-08T14:08:22.794Z,2410
2017-08-08T14:09:32.773Z,2305
2017-08-08T14:10:42.747Z,565
2017-08-08T14:11:53.053Z,545
2017-08-08T14:13:03.347Z,560
2017-08-08T14:14:13.645Z,555
2017-08-08T14:15:23.939Z,565
2017-08-08T14:16:33.914Z,565
2017-08-08T14:17:43.259Z,615
2017-08-08T14:18:52.925Z,720
2017-08-08T14:20:03.212Z,2395
2017-08-08T14:21:13.191Z,2385
2017-08-08T14:22:23.174Z,2500
2017-08-08T14:23:33.464Z,2335
2017-08-08T14:24:43.436Z,1800
2017-08-08T14:25:53.725Z,1815
2017-08-08T14:27:03.379Z,2125
2017-08-08T14:28:13.038Z,2400
2017-08-08T14:29:22.383Z,2430
2017-08-08T14:30:32.666Z,2290
2017-08-08T14:31:42.954Z,2175
2017-08-08T14:32:53.244Z,2075
2017-08-08T14:34:02.606Z,2120
2017-08-08T14:35:12.578Z,2070
2017-08-08T14:36:22.866Z,2300
2017-08-08T14:37:33.157Z,2385
2017-08-08T14:38:43.451Z,2245
2017-08-08T14:39:53.426Z,2360
2017-08-08T14:41:03.714Z,2455
2017-08-08T14:42:13.688Z,2575
2017-08-08T14:43:23.973Z,2675
2017-08-08T14:44:34.267Z,2655
2017-08-08T14:45:44.552Z,2630
2017-08-08T14:46:54.533Z,2605
2017-08-08T14:48:04.825Z,2635
2017-08-08T14:49:14.174Z,2465
2017-08-08T14:50:23.832Z,1725
2017-08-08T14:51:33.802Z,2540
2017-08-08T14:52:43.471Z,2430
2017-08-08T14:53:52.500Z,2425
2017-08-08T14:55:02.500Z,2340
2017-08-08T14:56:12.484Z,2280
2017-08-08T14:57:22.767Z,2245
2017-08-08T14:58:33.057Z,2115
2017-08-08T14:59:43.030Z,2240
2017-08-08T15:00:52.691Z,2215
2017-08-08T15:02:02.994Z,2140
2017-08-08T15:03:13.278Z,1975
2017-08-08T15:04:23.252Z,2215
2017-08-08T15:05:33.224Z,2270
2017-08-08T15:06:43.194Z,2135
2017-08-08T15:07:52.859Z,2235
2017-08-08T15:09:03.149Z,2205
2017-08-08T15:10:13.439Z,1565
2017-08-08T15:11:23.413Z,2060
2017-08-08T15:12:33.699Z,1880
2017-08-08T15:13:43.359Z,1825
2017-08-08T15:14:53.333Z,1650
2017-08-08T15:16:03.618Z,1240
2017-08-08T15:17:13.921Z,1560
2017-08-08T15:18:23.893Z,1450
2017-08-08T15:19:33.577Z,1265
2017-08-08T15:20:43.864Z,1330
2017-08-08T15:21:54.150Z,1375
2017-08-08T15:23:04.130Z,1350
2017-08-08T15:24:14.416Z,1440
2017-08-08T15:25:24.389Z,1400
2017-08-08T15:26:34.363Z,1540
2017-08-08T15:27:44.333Z,1800
2017-08-08T15:28:54.305Z,1960
2017-08-08T15:30:04.601Z,1950
2017-08-08T15:31:14.575Z,1975
2017-08-08T15:32:24.548Z,1985
2017-08-08T15:33:34.836Z,2085
2017-08-08T15:34:45.130Z,2060
2017-08-08T15:35:55.102Z,1975
2017-08-08T15:37:05.391Z,1765
2017-08-08T15:38:14.734Z,1325
2017-08-08T15:39:24.710Z,1015
2017-08-08T15:40:34.996Z,745
2017-08-08T15:41:44.661Z,720
2017-08-08T15:42:54.952Z,625
2017-08-08T15:44:04.643Z,660
2017-08-08T15:45:14.939Z,675
2017-08-08T15:46:25.229Z,765
2017-08-08T15:47:35.517Z,965
2017-08-08T15:48:45.495Z,675
2017-08-08T15:49:55.789Z,575
2017-08-08T15:51:06.073Z,540
2017-08-08T15:52:15.735Z,505
2017-08-08T15:53:25.735Z,520
2017-08-08T15:54:36.019Z,500
2017-08-08T15:55:46.304Z,475
2017-08-08T15:56:56.601Z,485
2017-08-08T15:58:06.579Z,585
2017-08-08T15:59:16.862Z,655
2017-08-08T16:00:26.519Z,530
2017-08-08T16:01:36.489Z,460
2017-08-08T16:02:46.147Z,460
2017-08-08T16:03:56.432Z,405
2017-08-08T16:05:06.403Z,385
2017-08-08T16:06:16.372Z,390
2017-08-08T16:07:26.343Z,400
2017-08-08T16:08:36.626Z,410
2017-08-08T16:09:46.640Z,395
2017-08-08T16:10:56.616Z,415
2017-08-08T16:12:06.898Z,405
2017-08-08T16:13:17.184Z,400